Time;durP1;ratioP1;P1;durP2;ratioP2;P2;SDS_P1;SDS_P2;PMS_P1;PMS_P2;Temp;Humidity;BMP_temperature;BMP_pressure;BME280_temperature;BME280_humidity;BME280_pressure;Samples;Min_cycle;Max_cycle;Signal;HPM_P1;HPM_P2
2021/06/11 00:00:11;;;;;;;5.33;4.60;;;;;;;;;;5029280;28;20204;-88
2021/06/11 00:03:19;;;;;;;5.77;4.53;;;;;;;;;;5027580;28;20189;-89
2021/06/11 00:06:23;;;;;;;5.20;4.70;;;;;;;;;;5004899;28;20189;-89
2021/06/11 00:09:28;;;;;;;6.47;5.10;;;;;;;;;;5004720;28;20189;-89
2021/06/11 00:12:32;;;;;;;5.47;4.30;;;;;;;;;;5015480;28;20555;-89
2021/06/11 00:15:37;;;;;;;5.23;4.57;;;;;;;;;;5018496;28;20185;-89
2021/06/11 00:18:41;;;;;;;4.90;4.50;;;;;;;;;;5024210;28;20189;-89
2021/06/11 00:21:45;;;;;;;5.17;4.60;;;;;;;;;;5016547;28;20221;-89
2021/06/11 00:24:49;;;;;;;6.50;4.63;;;;;;;;;;5024328;28;20185;-88
2021/06/11 00:27:58;;;;;;;5.43;4.93;;;;;;;;;;5026504;28;20191;-89
2021/06/11 00:31:02;;;;;;;5.27;4.40;;;;;;;;;;5053754;28;20224;-89
2021/06/11 00:34:06;;;;;;;5.10;4.37;;;;;;;;;;5039728;28;20211;-88
2021/06/11 00:37:10;;;;;;;6.03;4.40;;;;;;;;;;4981830;28;20205;-89
2021/06/11 00:40:14;;;;;;;5.27;4.77;;;;;;;;;;5017467;28;20221;-89
2021/06/11 00:43:18;;;;;;;5.90;4.80;;;;;;;;;;5006082;28;20197;-88
2021/06/11 00:46:22;;;;;;;5.47;4.90;;;;;;;;;;5017721;28;20195;-89
2021/06/11 00:49:26;;;;;;;5.00;4.50;;;;;;;;;;5030209;28;20200;-89
2021/06/11 00:52:32;;;;;;;5.40;4.90;;;;;;;;;;5023309;28;20216;-89
2021/06/11 00:55:42;;;;;;;5.37;4.87;;;;;;;;;;5011457;28;20208;-89
2021/06/11 00:58:47;;;;;;;6.37;4.77;;;;;;;;;;5041787;28;20196;-89
2021/06/11 01:01:51;;;;;;;5.90;5.40;;;;;;;;;;5040086;28;20571;-89
2021/06/11 01:04:56;;;;;;;6.27;5.20;;;;;;;;;;5018590;28;20200;-89
2021/06/11 01:08:01;;;;;;;5.80;4.90;;;;;;;;;;5030090;28;20183;-89
2021/06/11 01:11:05;;;;;;;5.07;4.57;;;;;;;;;;5007740;28;20207;-89
2021/06/11 01:14:12;;;;;;;5.33;4.83;;;;;;;;;;5023445;28;20655;-88
2021/06/11 01:17:16;;;;;;;6.00;4.77;;;;;;;;;;5035052;28;20200;-89
2021/06/11 01:20:21;;;;;;;5.30;4.80;;;;;;;;;;5025376;28;20208;-88
2021/06/11 01:23:39;;;;;;;6.43;5.17;;;;;;;;;;5003334;28;20664;-89
2021/06/11 01:26:48;;;;;;;5.50;5.00;;;;;;;;;;5030289;28;20192;-89
2021/06/11 01:29:56;;;;;;;5.10;4.47;;;;;;;;;;4981093;28;20648;-89
2021/06/11 01:33:02;;;;;;;5.97;4.70;;;;;;;;;;5003006;28;20541;-89
2021/06/11 01:36:10;;;;;;;5.27;4.77;;;;;;;;;;5022909;28;20188;-89
2021/06/11 01:39:17;;;;;;;5.27;4.77;;;;;;;;;;5053062;28;20650;-89
2021/06/11 01:42:21;;;;;;;6.10;5.50;;;;;;;;;;5033661;28;20217;-89
2021/06/11 01:45:26;;;;;;;6.97;4.73;;;;;;;;;;5025516;28;20184;-89
2021/06/11 01:48:30;;;;;;;5.60;4.50;;;;;;;;;;5040497;28;20197;-89
2021/06/11 01:51:36;;;;;;;5.67;4.57;;;;;;;;;;5006811;28;20213;-89
2021/06/11 01:54:43;;;;;;;5.50;4.90;;;;;;;;;;5033851;28;20184;-89
2021/06/11 01:57:47;;;;;;;5.47;4.97;;;;;;;;;;5041356;28;20204;-89
2021/06/11 02:00:53;;;;;;;5.60;4.63;;;;;;;;;;4999278;28;20232;-89
2021/06/11 02:03:59;;;;;;;5.87;5.00;;;;;;;;;;5034004;28;20184;-89
2021/06/11 02:07:07;;;;;;;5.73;5.07;;;;;;;;;;5022682;28;20181;-88
2021/06/11 02:10:12;;;;;;;5.90;5.13;;;;;;;;;;5009461;28;20190;-89
2021/06/11 02:13:17;;;;;;;5.87;5.27;;;;;;;;;;5005878;28;20700;-89
2021/06/11 02:16:24;;;;;;;6.47;5.87;;;;;;;;;;5004614;28;20204;-89
2021/06/11 02:19:28;;;;;;;6.60;4.87;;;;;;;;;;5025277;28;20185;-89
2021/06/11 02:22:35;;;;;;;6.70;5.43;;;;;;;;;;5025694;28;20702;-89
2021/06/11 02:25:39;;;;;;;6.03;5.33;;;;;;;;;;5014743;28;20188;-89
2021/06/11 02:28:43;;;;;;;6.77;5.60;;;;;;;;;;5033767;28;20193;-89
2021/06/11 02:31:48;;;;;;;5.40;4.90;;;;;;;;;;5009139;28;20220;-88
2021/06/11 02:34:52;;;;;;;6.67;5.00;;;;;;;;;;5038511;28;20188;-89
2021/06/11 02:37:58;;;;;;;5.67;5.17;;;;;;;;;;5032581;28;20196;-89
2021/06/11 02:41:03;;;;;;;6.23;4.97;;;;;;;;;;5012481;28;20224;-89
2021/06/11 02:44:08;;;;;;;6.10;5.43;;;;;;;;;;5040056;28;20192;-89
2021/06/11 02:47:36;;;;;;;5.93;5.33;;;;;;;;;;5018406;28;20193;-89
2021/06/11 02:50:46;;;;;;;5.90;5.30;;;;;;;;;;4999095;28;20213;-89
2021/06/11 02:53:51;;;;;;;5.60;5.10;;;;;;;;;;5016407;28;20196;-89
2021/06/11 02:57:08;;;;;;;5.63;5.10;;;;;;;;;;5041418;28;20180;-89
2021/06/11 03:00:12;;;;;;;7.70;5.93;;;;;;;;;;5040839;28;20189;-88
2021/06/11 03:03:23;;;;;;;6.77;6.03;;;;;;;;;;4979593;28;20197;-89
2021/06/11 03:06:30;;;;;;;6.03;5.40;;;;;;;;;;5039305;28;20364;-89
2021/06/11 03:09:36;;;;;;;6.43;5.70;;;;;;;;;;5052277;28;20191;-89
2021/06/11 03:12:43;;;;;;;6.73;5.70;;;;;;;;;;5005354;28;20182;-89
2021/06/11 03:15:48;;;;;;;7.23;5.27;;;;;;;;;;5013411;28;20185;-88
2021/06/11 03:18:56;;;;;;;9.10;6.13;;;;;;;;;;5018453;28;20192;-89
2021/06/11 03:22:06;;;;;;;8.83;6.37;;;;;;;;;;5021297;28;20219;-89
2021/06/11 03:25:16;;;;;;;6.87;6.13;;;;;;;;;;5039461;28;20196;-89
2021/06/11 03:28:43;;;;;;;7.97;6.27;;;;;;;;;;5031726;28;20180;-89
2021/06/11 03:31:54;;;;;;;7.00;6.07;;;;;;;;;;5038804;23;20694;-87
2021/06/11 03:35:05;;;;;;;5.93;5.33;;;;;;;;;;5008289;28;20190;-86
2021/06/11 03:38:15;;;;;;;8.10;6.00;;;;;;;;;;5005085;28;20205;-87
2021/06/11 03:41:20;;;;;;;7.60;6.47;;;;;;;;;;5006017;28;20232;-86
2021/06/11 03:44:27;;;;;;;8.90;6.20;;;;;;;;;;5024415;28;20193;-86
2021/06/11 03:47:34;;;;;;;8.33;6.10;;;;;;;;;;5005732;28;20539;-86
2021/06/11 03:50:41;;;;;;;8.30;6.20;;;;;;;;;;5006074;28;20675;-87
2021/06/11 03:53:46;;;;;;;6.60;6.00;;;;;;;;;;5032707;28;20181;-86
2021/06/11 03:56:53;;;;;;;8.63;6.27;;;;;;;;;;5005834;28;20656;-86
2021/06/11 03:59:59;;;;;;;6.80;6.00;;;;;;;;;;5007100;28;20549;-86
2021/06/11 04:03:04;;;;;;;8.03;6.50;;;;;;;;;;5016016;28;20676;-86
2021/06/11 04:06:12;;;;;;;10.13;6.50;;;;;;;;;;5004915;28;20177;-86
2021/06/11 04:09:21;;;;;;;7.10;6.27;;;;;;;;;;5029344;28;20185;-87
2021/06/11 04:12:32;;;;;;;7.77;6.10;;;;;;;;;;5017257;28;20217;-86
2021/06/11 04:15:41;;;;;;;7.03;6.03;;;;;;;;;;5009438;28;20648;-85
2021/06/11 04:18:46;;;;;;;7.33;6.63;;;;;;;;;;5015328;28;20194;-88
2021/06/11 04:21:52;;;;;;;6.97;5.57;;;;;;;;;;5004432;28;20232;-86
2021/06/11 04:24:59;;;;;;;6.90;6.20;;;;;;;;;;5016661;28;20643;-86
2021/06/11 04:28:06;;;;;;;7.23;6.53;;;;;;;;;;5013327;28;20551;-86
2021/06/11 04:31:10;;;;;;;6.87;6.17;;;;;;;;;;5037849;28;20224;-85
2021/06/11 04:34:16;;;;;;;8.60;6.30;;;;;;;;;;5003392;28;20181;-86
2021/06/11 04:37:20;;;;;;;9.70;6.63;;;;;;;;;;5015610;28;20185;-86
2021/06/11 04:40:24;;;;;;;7.43;6.23;;;;;;;;;;5016179;28;20197;-86
2021/06/11 04:43:28;;;;;;;7.07;6.37;;;;;;;;;;5005096;28;20181;-86
2021/06/11 04:46:33;;;;;;;7.80;6.93;;;;;;;;;;5018041;28;20552;-86
2021/06/11 04:49:37;;;;;;;8.17;6.80;;;;;;;;;;5004183;28;20185;-86
2021/06/11 04:52:42;;;;;;;8.10;6.80;;;;;;;;;;5015073;28;20687;-86
2021/06/11 04:55:46;;;;;;;8.03;6.87;;;;;;;;;;5015834;28;20185;-85
2021/06/11 04:58:52;;;;;;;7.27;6.57;;;;;;;;;;5014889;28;20550;-85
2021/06/11 05:01:57;;;;;;;9.43;7.03;;;;;;;;;;5015003;28;20226;-88
2021/06/11 05:05:02;;;;;;;8.90;7.23;;;;;;;;;;5008020;28;20190;-86
2021/06/11 05:08:05;;;;;;;10.23;8.17;;;;;;;;;;5003958;28;20545;-86
2021/06/11 05:11:10;;;;;;;11.27;7.70;;;;;;;;;;5003548;28;20216;-86
2021/06/11 05:14:15;;;;;;;9.77;8.00;;;;;;;;;;5018494;28;20620;-85
2021/06/11 05:17:20;;;;;;;10.47;8.10;;;;;;;;;;5032811;28;20189;-86
2021/06/11 05:20:24;;;;;;;9.60;8.17;;;;;;;;;;5034559;28;20181;-86
2021/06/11 05:23:28;;;;;;;8.93;8.03;;;;;;;;;;5021471;28;20185;-86
2021/06/11 05:26:33;;;;;;;9.40;8.40;;;;;;;;;;5018315;28;20200;-86
2021/06/11 05:29:37;;;;;;;9.07;8.00;;;;;;;;;;5018472;28;20185;-86
2021/06/11 05:32:41;;;;;;;9.50;7.90;;;;;;;;;;5027931;28;20220;-86
2021/06/11 05:35:46;;;;;;;10.97;8.17;;;;;;;;;;5018444;28;20201;-86
2021/06/11 05:38:50;;;;;;;11.23;7.33;;;;;;;;;;5026614;28;20189;-85
2021/06/11 05:41:54;;;;;;;9.70;7.40;;;;;;;;;;5009922;28;20224;-86
2021/06/11 05:44:59;;;;;;;10.50;8.30;;;;;;;;;;5022459;28;20196;-86
2021/06/11 05:48:04;;;;;;;14.90;8.03;;;;;;;;;;5030756;28;20204;-85
2021/06/11 05:51:09;;;;;;;8.83;7.57;;;;;;;;;;5019907;28;20220;-86
2021/06/11 05:54:13;;;;;;;10.33;7.10;;;;;;;;;;5030272;28;20656;-85
2021/06/11 05:57:17;;;;;;;6.60;6.00;;;;;;;;;;5003732;28;20197;-86
2021/06/11 06:00:22;;;;;;;16.13;7.93;;;;;;;;;;5032171;28;20197;-86
2021/06/11 06:03:27;;;;;;;14.53;7.20;;;;;;;;;;5021298;28;20225;-86
2021/06/11 06:06:31;;;;;;;9.50;7.20;;;;;;;;;;5025661;28;20644;-86
2021/06/11 06:09:35;;;;;;;7.50;6.80;;;;;;;;;;5002641;28;20185;-86
2021/06/11 06:12:40;;;;;;;9.03;6.40;;;;;;;;;;5021502;28;20217;-86
2021/06/11 06:15:44;;;;;;;11.23;7.23;;;;;;;;;;5005134;28;20196;-86
2021/06/11 06:18:49;;;;;;;9.73;7.17;;;;;;;;;;5022058;28;20193;-86
2021/06/11 06:21:53;;;;;;;8.97;6.50;;;;;;;;;;5009939;28;20221;-86
2021/06/11 06:24:57;;;;;;;9.67;7.30;;;;;;;;;;5002488;28;20185;-86
2021/06/11 06:28:02;;;;;;;7.50;6.80;;;;;;;;;;5002321;28;20632;-86
2021/06/11 06:31:06;;;;;;;9.93;6.43;;;;;;;;;;4995312;28;20223;-86
2021/06/11 06:34:10;;;;;;;9.70;6.67;;;;;;;;;;5010754;28;20176;-86
2021/06/11 06:37:14;;;;;;;9.07;6.20;;;;;;;;;;5018454;28;20200;-86
2021/06/11 06:40:19;;;;;;;9.80;6.30;;;;;;;;;;4991311;28;20197;-86
2021/06/11 06:43:24;;;;;;;14.07;6.53;;;;;;;;;;5014649;28;20221;-86
2021/06/11 06:46:28;;;;;;;10.73;6.43;;;;;;;;;;5023665;28;20635;-86
2021/06/11 06:49:33;;;;;;;9.93;6.50;;;;;;;;;;5019792;28;20192;-85
2021/06/11 06:52:37;;;;;;;6.53;5.83;;;;;;;;;;5044291;28;20568;-85
2021/06/11 06:55:42;;;;;;;10.90;5.97;;;;;;;;;;5017077;28;20186;-85
2021/06/11 06:58:46;;;;;;;9.07;6.20;;;;;;;;;;5006109;28;20185;-85
2021/06/11 07:01:51;;;;;;;12.27;6.07;;;;;;;;;;5013650;28;20224;-85
2021/06/11 07:04:55;;;;;;;11.43;5.87;;;;;;;;;;5014413;28;20193;-85
2021/06/11 07:07:59;;;;;;;6.27;5.47;;;;;;;;;;5025333;28;20196;-85
2021/06/11 07:11:05;;;;;;;6.13;5.23;;;;;;;;;;5035397;28;20220;-85
2021/06/11 07:14:09;;;;;;;6.67;5.10;;;;;;;;;;5025140;28;20188;-86
2021/06/11 07:17:13;;;;;;;11.60;5.67;;;;;;;;;;5025868;28;20185;-86
2021/06/11 07:20:18;;;;;;;10.43;5.50;;;;;;;;;;5036591;28;20173;-86
2021/06/11 07:23:22;;;;;;;7.77;5.30;;;;;;;;;;5005704;28;20561;-86
2021/06/11 07:26:27;;;;;;;6.40;5.10;;;;;;;;;;5005423;28;20178;-85
2021/06/11 07:29:31;;;;;;;12.57;4.17;;;;;;;;;;5005859;28;20181;-85
2021/06/11 07:32:36;;;;;;;4.57;4.17;;;;;;;;;;5026340;28;20220;-86
2021/06/11 07:35:40;;;;;;;5.70;4.03;;;;;;;;;;5016278;28;20193;-86
2021/06/11 07:38:44;;;;;;;4.50;4.10;;;;;;;;;;5010327;28;20540;-86
2021/06/11 07:41:49;;;;;;;4.47;4.07;;;;;;;;;;5020457;28;20221;-86
2021/06/11 07:44:54;;;;;;;7.03;3.90;;;;;;;;;;4994059;28;20183;-86
2021/06/11 07:47:58;;;;;;;7.23;3.90;;;;;;;;;;5021413;28;20188;-85
2021/06/11 07:51:02;;;;;;;6.83;3.77;;;;;;;;;;5017193;28;20226;-85
2021/06/11 07:54:09;;;;;;;6.80;4.37;;;;;;;;;;5036515;28;20617;-85
2021/06/11 07:57:14;;;;;;;7.30;4.67;;;;;;;;;;5013023;28;20199;-86
2021/06/11 08:00:19;;;;;;;5.57;4.63;;;;;;;;;;5031859;28;20189;-85
2021/06/11 08:03:23;;;;;;;5.65;4.30;;;;;;;;;;5018731;28;20218;-85
2021/06/11 08:06:27;;;;;;;8.80;4.40;;;;;;;;;;5004787;28;20191;-86
2021/06/11 08:09:33;;;;;;;4.53;4.05;;;;;;;;;;5005124;28;20182;-85
2021/06/11 08:12:37;;;;;;;5.45;4.20;;;;;;;;;;5005238;28;20211;-86
2021/06/11 08:15:41;;;;;;;4.78;3.42;;;;;;;;;;5019883;28;20188;-85
2021/06/11 08:18:46;;;;;;;4.07;3.58;;;;;;;;;;5024663;28;20187;-86
2021/06/11 08:21:50;;;;;;;6.53;4.03;;;;;;;;;;5035651;28;20220;-85
2021/06/11 08:24:54;;;;;;;3.72;3.42;;;;;;;;;;5010267;28;20194;-85
2021/06/11 08:27:59;;;;;;;5.32;4.57;;;;;;;;;;5014540;28;20529;-86
2021/06/11 08:31:04;;;;;;;4.32;3.92;;;;;;;;;;5004783;28;20223;-86
2021/06/11 08:34:08;;;;;;;4.15;3.75;;;;;;;;;;5015999;28;20645;-85
2021/06/11 08:37:13;;;;;;;3.50;3.20;;;;;;;;;;5012287;28;20196;-86
2021/06/11 08:40:17;;;;;;;3.30;3.00;;;;;;;;;;5034602;28;20544;-86
2021/06/11 08:43:21;;;;;;;4.47;3.70;;;;;;;;;;5035991;28;20677;-86
2021/06/11 08:46:27;;;;;;;3.95;3.63;;;;;;;;;;5022986;28;20513;-86
2021/06/11 08:49:31;;;;;;;6.88;4.38;;;;;;;;;;5004434;28;20199;-86
2021/06/11 08:52:35;;;;;;;4.90;4.07;;;;;;;;;;5015730;28;20225;-86
2021/06/11 08:55:39;;;;;;;5.65;3.78;;;;;;;;;;5004230;28;20184;-86
2021/06/11 08:58:43;;;;;;;6.22;4.07;;;;;;;;;;5034187;28;20193;-86
2021/06/11 09:01:50;;;;;;;5.82;4.65;;;;;;;;;;5020523;28;20220;-85
2021/06/11 09:04:55;;;;;;;6.63;3.88;;;;;;;;;;5044731;28;20192;-86
2021/06/11 09:08:16;;;;;;;5.75;3.85;;;;;;;;;;5023015;28;20194;-86
2021/06/11 09:11:30;;;;;;;5.22;4.68;;;;;;;;;;4992563;28;20218;-86
2021/06/11 09:14:53;;;;;;;6.63;4.03;;;;;;;;;;5004883;28;20186;-86
2021/06/11 09:17:58;;;;;;;4.53;4.13;;;;;;;;;;5015477;28;20186;-86
2021/06/11 09:21:44;;;;;;;4.95;3.88;;;;;;;;;;5003505;28;20222;-86
2021/06/11 09:24:48;;;;;;;5.38;4.20;;;;;;;;;;5014653;28;20182;-86
2021/06/11 09:27:58;;;;;;;5.18;4.68;;;;;;;;;;5003570;28;20196;-86
2021/06/11 09:31:02;;;;;;;4.80;4.40;;;;;;;;;;5014829;28;20222;-86
2021/06/11 09:34:20;;;;;;;4.57;4.13;;;;;;;;;;5022704;28;20192;-85
2021/06/11 09:37:29;;;;;;;4.53;4.15;;;;;;;;;;5016609;28;20645;-85
2021/06/11 09:40:34;;;;;;;9.98;4.47;;;;;;;;;;5021428;28;20193;-85
2021/06/11 09:43:56;;;;;;;35.33;5.15;;;;;;;;;;5014519;28;20210;-85
2021/06/11 09:47:01;;;;;;;4.10;3.80;;;;;;;;;;5013880;28;20201;-86
2021/06/11 09:50:10;;;;;;;4.30;3.90;;;;;;;;;;5023063;28;20182;-85
2021/06/11 09:53:15;;;;;;;6.95;4.30;;;;;;;;;;5022335;28;20193;-85
2021/06/11 09:56:26;;;;;;;4.20;3.83;;;;;;;;;;5033944;28;20201;-85
2021/06/11 09:59:43;;;;;;;4.68;4.28;;;;;;;;;;5039053;28;20186;-85
2021/06/11 10:02:48;;;;;;;8.93;4.13;;;;;;;;;;5002877;28;20221;-85
2021/06/11 10:05:55;;;;;;;4.43;4.03;;;;;;;;;;5002969;28;20189;-86
2021/06/11 10:08:59;;;;;;;6.93;3.97;;;;;;;;;;5011991;28;20192;-86
2021/06/11 10:12:04;;;;;;;4.40;4.00;;;;;;;;;;5033017;28;20564;-86
2021/06/11 10:15:08;;;;;;;3.95;3.40;;;;;;;;;;5018303;28;20193;-86
2021/06/11 10:18:13;;;;;;;3.80;3.50;;;;;;;;;;5003592;28;20174;-86
2021/06/11 10:21:17;;;;;;;4.90;3.72;;;;;;;;;;5044918;28;20216;-86
2021/06/11 10:24:22;;;;;;;4.00;3.70;;;;;;;;;;5009951;28;20213;-86
2021/06/11 10:27:26;;;;;;;3.72;3.42;;;;;;;;;;5013379;28;20201;-86
2021/06/11 10:30:31;;;;;;;3.33;3.03;;;;;;;;;;5009056;28;20536;-87
2021/06/11 10:33:44;;;;;;;4.10;3.70;;;;;;;;;;5021582;28;20177;-87
2021/06/11 10:36:48;;;;;;;4.60;3.75;;;;;;;;;;5033395;28;20178;-86
2021/06/11 10:39:53;;;;;;;4.05;3.47;;;;;;;;;;5032778;28;20193;-86
2021/06/11 10:43:20;;;;;;;5.18;4.07;;;;;;;;;;5012714;28;20214;-87
2021/06/11 10:46:30;;;;;;;3.90;3.60;;;;;;;;;;5002277;28;20633;-87
2021/06/11 10:50:01;;;;;;;5.22;4.63;;;;;;;;;;5013170;28;20182;-86
2021/06/11 10:53:27;;;;;;;5.70;4.10;;;;;;;;;;5032046;28;20292;-86
2021/06/11 10:56:31;;;;;;;4.43;3.80;;;;;;;;;;5025615;28;20190;-86
2021/06/11 10:59:49;;;;;;;5.07;3.70;;;;;;;;;;5014635;28;20190;-85
2021/06/11 11:02:57;;;;;;;7.03;3.67;;;;;;;;;;5020885;28;20217;-86
2021/06/11 11:06:27;;;;;;;4.50;3.20;;;;;;;;;;5001928;28;20186;-85
2021/06/11 11:09:55;;;;;;;6.05;3.90;;;;;;;;;;5008923;28;20182;-86
2021/06/11 11:13:04;;;;;;;4.25;3.45;;;;;;;;;;5013870;28;20222;-86
2021/06/11 11:16:23;;;;;;;4.25;3.85;;;;;;;;;;5001635;28;20189;-86
2021/06/11 11:19:58;;;;;;;6.60;3.88;;;;;;;;;;5011946;28;20197;-86
2021/06/11 11:23:11;;;;;;;3.90;3.50;;;;;;;;;;5001724;28;20217;-86
2021/06/11 11:26:15;;;;;;;5.28;3.42;;;;;;;;;;4990702;28;20194;-85
2021/06/11 11:29:20;;;;;;;3.95;3.65;;;;;;;;;;5030661;28;20651;-86
2021/06/11 11:32:25;;;;;;;7.82;4.32;;;;;;;;;;4997678;28;20577;-86
2021/06/11 11:35:32;;;;;;;4.97;3.70;;;;;;;;;;5003939;28;20194;-86
2021/06/11 11:38:36;;;;;;;18.23;4.75;;;;;;;;;;5013711;28;20178;-85
2021/06/11 11:41:41;;;;;;;5.35;4.00;;;;;;;;;;5001874;28;20217;-85
2021/06/11 11:44:45;;;;;;;11.13;4.70;;;;;;;;;;5005160;28;20198;-86
2021/06/11 11:47:49;;;;;;;4.07;3.67;;;;;;;;;;5030869;28;20189;-85
2021/06/11 11:50:54;;;;;;;4.30;3.42;;;;;;;;;;5005174;28;20518;-86
2021/06/11 11:53:58;;;;;;;16.80;4.60;;;;;;;;;;4994139;28;20178;-86
2021/06/11 11:57:03;;;;;;;6.63;4.00;;;;;;;;;;5016568;28;20636;-85
2021/06/11 12:00:09;;;;;;;3.90;3.45;;;;;;;;;;5005108;28;20189;-85
2021/06/11 12:03:18;;;;;;;3.72;3.42;;;;;;;;;;5027949;28;20193;-85
2021/06/11 12:06:25;;;;;;;6.15;4.03;;;;;;;;;;5001394;28;20193;-85
2021/06/11 12:09:31;;;;;;;3.97;3.50;;;;;;;;;;5016134;28;20648;-85
2021/06/11 12:12:36;;;;;;;4.05;3.75;;;;;;;;;;5012681;28;20217;-85
2021/06/11 12:15:41;;;;;;;4.97;3.50;;;;;;;;;;5035967;28;20193;-86
2021/06/11 12:18:45;;;;;;;4.18;3.35;;;;;;;;;;5018457;28;20652;-85
2021/06/11 12:21:49;;;;;;;5.07;3.80;;;;;;;;;;5047436;28;20221;-86
2021/06/11 12:24:53;;;;;;;7.10;3.38;;;;;;;;;;5013026;28;20676;-85
2021/06/11 12:27:58;;;;;;;4.63;3.13;;;;;;;;;;5035489;28;20177;-85
2021/06/11 12:31:03;;;;;;;3.22;2.90;;;;;;;;;;5023611;28;20687;-85
2021/06/11 12:34:08;;;;;;;3.25;2.95;;;;;;;;;;5026029;28;20197;-85
2021/06/11 12:37:12;;;;;;;4.65;3.17;;;;;;;;;;5047036;28;20173;-86
2021/06/11 12:40:17;;;;;;;3.38;2.92;;;;;;;;;;5036868;28;20524;-86
2021/06/11 12:44:14;;;;;;;3.10;2.45;;;;;;;;;;5016249;28;20198;-86
2021/06/11 12:46:50;;;;;;;2.90;2.70;;;;;;;;;;5015909;28;20194;-85
2021/06/11 12:49:54;;;;;;;2.88;2.63;;;;;;;;;;5006918;28;20537;-85
2021/06/11 12:52:58;;;;;;;3.88;3.00;;;;;;;;;;5035421;28;20221;-85
2021/06/11 12:56:04;;;;;;;3.05;2.50;;;;;;;;;;5023080;28;20640;-85
2021/06/11 12:59:09;;;;;;;3.03;2.72;;;;;;;;;;5015579;28;20182;-85
2021/06/11 13:02:14;;;;;;;4.07;2.90;;;;;;;;;;4992591;28;20556;-85
2021/06/11 13:05:26;;;;;;;3.95;2.80;;;;;;;;;;5006409;28;20563;-85
2021/06/11 13:08:30;;;;;;;2.58;2.38;;;;;;;;;;5026270;28;20193;-85
2021/06/11 13:11:41;;;;;;;3.97;2.70;;;;;;;;;;5004219;28;20214;-85
2021/06/11 13:14:45;;;;;;;5.03;3.03;;;;;;;;;;5015787;28;20516;-85
2021/06/11 13:17:49;;;;;;;4.38;3.03;;;;;;;;;;5023453;28;20185;-85
2021/06/11 13:20:54;;;;;;;2.95;2.75;;;;;;;;;;5036072;28;20190;-85
2021/06/11 13:23:58;;;;;;;3.25;2.50;;;;;;;;;;5014835;28;20209;-85
2021/06/11 13:27:03;;;;;;;3.28;3.00;;;;;;;;;;5014948;28;20194;-85
2021/06/11 13:30:08;;;;;;;2.55;2.35;;;;;;;;;;5020534;28;20197;-85
2021/06/11 13:33:12;;;;;;;4.07;2.90;;;;;;;;;;5003762;28;20201;-85
2021/06/11 13:36:17;;;;;;;3.08;2.30;;;;;;;;;;5018149;28;20193;-86
2021/06/11 13:39:21;;;;;;;7.00;2.85;;;;;;;;;;5016019;28;20182;-86
2021/06/11 13:42:25;;;;;;;2.55;2.30;;;;;;;;;;5026161;28;20205;-85
2021/06/11 13:45:30;;;;;;;5.07;2.20;;;;;;;;;;5014307;28;20225;-85
2021/06/11 13:48:34;;;;;;;4.32;2.85;;;;;;;;;;5020287;28;20197;-85
2021/06/11 13:51:38;;;;;;;3.60;2.28;;;;;;;;;;5033918;28;20221;-85
2021/06/11 13:54:42;;;;;;;7.70;2.72;;;;;;;;;;5022565;28;20667;-85
2021/06/11 13:57:48;;;;;;;6.43;2.30;;;;;;;;;;5009905;28;20209;-85
2021/06/11 14:00:53;;;;;;;2.60;2.30;;;;;;;;;;5005599;28;20184;-85
2021/06/11 14:03:57;;;;;;;6.85;2.67;;;;;;;;;;5023182;28;20177;-85
2021/06/11 14:07:02;;;;;;;10.50;3.28;;;;;;;;;;5033688;28;20193;-85
2021/06/11 14:10:07;;;;;;;18.42;3.58;;;;;;;;;;5034073;28;20527;-89
2021/06/11 14:13:12;;;;;;;7.18;2.58;;;;;;;;;;5019393;28;20189;-90
2021/06/11 14:16:16;;;;;;;3.25;2.42;;;;;;;;;;5022107;28;20177;-90
2021/06/11 14:19:20;;;;;;;3.60;2.80;;;;;;;;;;5033394;28;20177;-91
2021/06/11 14:22:24;;;;;;;2.90;2.70;;;;;;;;;;5021854;28;20568;-90
2021/06/11 14:25:28;;;;;;;2.85;2.65;;;;;;;;;;5032815;28;20232;-90
2021/06/11 14:28:33;;;;;;;4.25;3.22;;;;;;;;;;5021911;28;20191;-90
2021/06/11 14:31:37;;;;;;;3.92;2.47;;;;;;;;;;5021701;28;20234;-90
2021/06/11 14:34:41;;;;;;;4.38;2.85;;;;;;;;;;5033507;28;20183;-90
2021/06/11 14:37:46;;;;;;;3.25;2.72;;;;;;;;;;5021714;28;20205;-90
2021/06/11 14:40:50;;;;;;;2.60;2.40;;;;;;;;;;5021666;28;20631;-90
2021/06/11 14:43:54;;;;;;;2.80;2.60;;;;;;;;;;5033104;28;20184;-90
2021/06/11 14:47:00;;;;;;;3.00;2.80;;;;;;;;;;5021945;28;20187;-90
2021/06/11 14:50:05;;;;;;;3.00;2.80;;;;;;;;;;5032987;28;20183;-90
2021/06/11 14:53:13;;;;;;;6.50;3.25;;;;;;;;;;5021882;28;20184;-90
2021/06/11 14:56:23;;;;;;;3.30;3.00;;;;;;;;;;5010307;28;20176;-90
2021/06/11 14:59:28;;;;;;;3.10;2.75;;;;;;;;;;5021742;28;20184;-90
2021/06/11 15:02:32;;;;;;;4.93;3.05;;;;;;;;;;5021038;28;20218;-90
2021/06/11 15:05:36;;;;;;;3.70;3.40;;;;;;;;;;5021233;28;20219;-90
2021/06/11 15:08:40;;;;;;;5.88;3.28;;;;;;;;;;5021280;28;20203;-90
2021/06/11 15:11:45;;;;;;;3.40;3.15;;;;;;;;;;5026224;28;20221;-90
2021/06/11 15:14:50;;;;;;;3.97;3.22;;;;;;;;;;5008781;28;20545;-90
2021/06/11 15:17:54;;;;;;;3.85;3.42;;;;;;;;;;5011163;28;20185;-91
2021/06/11 15:20:58;;;;;;;6.43;2.60;;;;;;;;;;5030324;28;20225;-91
2021/06/11 15:24:03;;;;;;;3.72;3.00;;;;;;;;;;5045316;28;20193;-90
2021/06/11 15:27:08;;;;;;;3.25;2.92;;;;;;;;;;5023926;28;20189;-90
2021/06/11 15:30:14;;;;;;;4.95;3.38;;;;;;;;;;5036538;28;20177;-90
2021/06/11 15:33:19;;;;;;;6.25;3.03;;;;;;;;;;5025198;28;20185;-90
2021/06/11 15:36:24;;;;;;;4.78;2.97;;;;;;;;;;5051951;23;20228;-86
2021/06/11 15:39:28;;;;;;;5.85;3.05;;;;;;;;;;5068122;28;20169;-86
2021/06/11 15:42:34;;;;;;;3.95;2.92;;;;;;;;;;5055323;28;20198;-86
2021/06/11 15:45:43;;;;;;;4.40;3.35;;;;;;;;;;5047385;28;20705;-86
2021/06/11 15:48:47;;;;;;;4.05;3.13;;;;;;;;;;5023073;28;20191;-86
2021/06/11 15:51:51;;;;;;;3.22;2.92;;;;;;;;;;5024216;28;20527;-85
2021/06/11 15:54:55;;;;;;;4.03;3.33;;;;;;;;;;5025801;28;20533;-85
2021/06/11 15:57:59;;;;;;;5.68;3.88;;;;;;;;;;5001658;28;20186;-87
2021/06/11 16:01:04;;;;;;;4.63;3.50;;;;;;;;;;5004697;28;20188;-87
2021/06/11 16:04:09;;;;;;;3.85;3.10;;;;;;;;;;5007745;28;20642;-87
2021/06/11 16:07:13;;;;;;;3.70;3.38;;;;;;;;;;5020143;28;20170;-87
2021/06/11 16:10:17;;;;;;;5.30;3.42;;;;;;;;;;5022621;28;20192;-87
2021/06/11 16:13:21;;;;;;;4.18;3.58;;;;;;;;;;5024299;28;20196;-86
2021/06/11 16:16:26;;;;;;;4.63;3.30;;;;;;;;;;5000860;28;20689;-87
2021/06/11 16:19:31;;;;;;;4.28;3.22;;;;;;;;;;5011604;28;20394;-86
2021/06/11 16:22:35;;;;;;;4.97;3.35;;;;;;;;;;5011850;28;20190;-86
2021/06/11 16:25:39;;;;;;;3.78;3.35;;;;;;;;;;5025491;28;20226;-86
2021/06/11 16:28:43;;;;;;;4.32;3.80;;;;;;;;;;5019240;28;20187;-87
2021/06/11 16:31:48;;;;;;;18.38;4.30;;;;;;;;;;5010979;28;20434;-85
2021/06/11 16:34:53;;;;;;;3.88;3.47;;;;;;;;;;5015487;28;20193;-85
2021/06/11 16:37:57;;;;;;;5.32;3.50;;;;;;;;;;5018786;28;20191;-85
2021/06/11 16:41:01;;;;;;;6.00;3.42;;;;;;;;;;5004040;28;20197;-85
2021/06/11 16:44:06;;;;;;;5.27;3.80;;;;;;;;;;5030829;28;20196;-85
2021/06/11 16:47:16;;;;;;;4.82;3.55;;;;;;;;;;5030717;28;20177;-86
2021/06/11 16:50:20;;;;;;;4.13;3.20;;;;;;;;;;4999838;28;20180;-85
2021/06/11 16:53:24;;;;;;;3.90;3.43;;;;;;;;;;5011130;28;20184;-85
2021/06/11 16:56:30;;;;;;;4.17;3.20;;;;;;;;;;4999619;28;20223;-85
2021/06/11 16:59:34;;;;;;;4.13;3.40;;;;;;;;;;5036253;28;20195;-85
2021/06/11 17:02:39;;;;;;;3.70;3.40;;;;;;;;;;5012361;28;20191;-85
2021/06/11 17:05:43;;;;;;;3.83;3.53;;;;;;;;;;5011106;28;20223;-85
2021/06/11 17:08:47;;;;;;;4.13;3.73;;;;;;;;;;5018087;28;20200;-86
2021/06/11 17:11:51;;;;;;;8.70;4.00;;;;;;;;;;5024343;28;20546;-85
2021/06/11 17:14:55;;;;;;;4.37;3.60;;;;;;;;;;5007927;28;20197;-86
2021/06/11 17:18:00;;;;;;;3.83;3.43;;;;;;;;;;5010784;28;20201;-86
2021/06/11 17:21:04;;;;;;;4.00;3.33;;;;;;;;;;4999241;28;20658;-86
2021/06/11 17:24:24;;;;;;;3.40;3.10;;;;;;;;;;4999769;28;20178;-86
2021/06/11 17:27:27;;;;;;;4.40;3.70;;;;;;;;;;5010647;28;20179;-86
2021/06/11 17:30:32;;;;;;;4.67;3.27;;;;;;;;;;5021708;28;20620;-86
2021/06/11 17:33:40;;;;;;;3.80;3.50;;;;;;;;;;5029984;28;20173;-86
2021/06/11 17:36:45;;;;;;;3.90;3.60;;;;;;;;;;5025294;28;20231;-85
2021/06/11 17:39:55;;;;;;;4.20;3.63;;;;;;;;;;5009290;28;20189;-86
2021/06/11 17:43:01;;;;;;;3.67;3.37;;;;;;;;;;4998716;28;20186;-86
2021/06/11 17:46:06;;;;;;;3.47;3.13;;;;;;;;;;5006820;28;20254;-86
2021/06/11 17:49:11;;;;;;;5.40;3.80;;;;;;;;;;5002878;28;20186;-85
2021/06/11 17:52:16;;;;;;;3.67;3.27;;;;;;;;;;4998711;28;20210;-86
2021/06/11 17:55:32;;;;;;;3.50;3.20;;;;;;;;;;5009526;28;20217;-85
2021/06/11 17:58:36;;;;;;;5.13;3.20;;;;;;;;;;5008128;28;20203;-86
2021/06/11 18:01:41;;;;;;;4.17;3.10;;;;;;;;;;5018394;28;20189;-85
2021/06/11 18:04:51;;;;;;;3.47;3.03;;;;;;;;;;5000139;28;20535;-86
2021/06/11 18:07:55;;;;;;;3.97;3.57;;;;;;;;;;4998313;28;20208;-85
2021/06/11 18:11:17;;;;;;;4.00;3.60;;;;;;;;;;5012699;28;20204;-86
2021/06/11 18:14:21;;;;;;;3.40;3.00;;;;;;;;;;5018246;28;20185;-86
2021/06/11 18:17:28;;;;;;;3.47;3.17;;;;;;;;;;5001965;28;20178;-86
2021/06/11 18:20:33;;;;;;;7.93;3.47;;;;;;;;;;5028999;28;20197;-85
2021/06/11 18:23:38;;;;;;;6.17;3.20;;;;;;;;;;5018097;28;20265;-86
2021/06/11 18:26:57;;;;;;;3.83;3.27;;;;;;;;;;5017577;28;20230;-86
2021/06/11 18:30:02;;;;;;;4.40;3.60;;;;;;;;;;5028641;28;20194;-85
2021/06/11 18:33:06;;;;;;;4.13;3.73;;;;;;;;;;5018515;28;20176;-86
2021/06/11 18:36:17;;;;;;;4.10;3.40;;;;;;;;;;5012547;28;20233;-86